sensor_id;sensor_type;location;lat;lon;timestamp;pressure;altitude;pressure_sealevel;temperature;humidity
20710;BME280;10516;51.518;9.864;2023-05-10T00:01:42;97968.97;;;14.93;62.36
20710;BME280;10516;51.518;9.864;2023-05-10T00:04:07;97962.72;;;14.98;62.13
20710;BME280;10516;51.518;9.864;2023-05-10T00:06:32;97961.81;;;15.02;62.09
20710;BME280;10516;51.518;9.864;2023-05-10T00:08:57;97963.59;;;15.07;62.09
20710;BME280;10516;51.518;9.864;2023-05-10T00:11:23;97960.13;;;15.07;62.06
20710;BME280;10516;51.518;9.864;2023-05-10T00:13:48;97956.94;;;15.05;62.46
20710;BME280;10516;51.518;9.864;2023-05-10T00:16:13;97959.22;;;15.11;62.41
20710;BME280;10516;51.518;9.864;2023-05-10T00:18:39;97959.91;;;15.03;62.43
20710;BME280;10516;51.518;9.864;2023-05-10T00:21:05;97955.81;;;15.06;62.05
20710;BME280;10516;51.518;9.864;2023-05-10T00:23:30;97956.53;;;15.11;61.94
20710;BME280;10516;51.518;9.864;2023-05-10T00:25:55;97963.50;;;15.12;61.55
20710;BME280;10516;51.518;9.864;2023-05-10T00:28:20;97957.94;;;15.09;62.06
20710;BME280;10516;51.518;9.864;2023-05-10T00:30:46;97966.38;;;14.88;62.33
20710;BME280;10516;51.518;9.864;2023-05-10T00:33:11;97959.00;;;14.94;62.21
20710;BME280;10516;51.518;9.864;2023-05-10T00:35:37;97960.78;;;14.98;61.40
20710;BME280;10516;51.518;9.864;2023-05-10T00:38:03;97953.75;;;15.02;61.20
20710;BME280;10516;51.518;9.864;2023-05-10T00:40:28;97949.16;;;15.03;61.15
20710;BME280;10516;51.518;9.864;2023-05-10T00:42:53;97948.38;;;15.02;61.00
20710;BME280;10516;51.518;9.864;2023-05-10T00:45:19;97949.38;;;15.07;61.14
20710;BME280;10516;51.518;9.864;2023-05-10T00:47:44;97946.97;;;15.05;61.00
20710;BME280;10516;51.518;9.864;2023-05-10T00:50:09;97943.50;;;15.05;61.06
20710;BME280;10516;51.518;9.864;2023-05-10T00:52:35;97949.97;;;15.03;61.08
20710;BME280;10516;51.518;9.864;2023-05-10T00:55:00;97942.19;;;15.02;61.11
20710;BME280;10516;51.518;9.864;2023-05-10T00:57:26;97945.56;;;15.08;61.00
20710;BME280;10516;51.518;9.864;2023-05-10T00:59:51;97941.31;;;15.07;61.40
20710;BME280;10516;51.518;9.864;2023-05-10T01:02:17;97940.19;;;15.08;61.35
20710;BME280;10516;51.518;9.864;2023-05-10T01:04:42;97942.09;;;15.07;60.89
20710;BME280;10516;51.518;9.864;2023-05-10T01:07:08;97938.41;;;15.03;61.44
20710;BME280;10516;51.518;9.864;2023-05-10T01:09:33;97928.19;;;14.91;61.51
20710;BME280;10516;51.518;9.864;2023-05-10T01:11:59;97934.81;;;14.94;61.14
20710;BME280;10516;51.518;9.864;2023-05-10T01:14:25;97934.03;;;14.93;61.21
20710;BME280;10516;51.518;9.864;2023-05-10T01:16:51;97936.91;;;14.97;60.87
20710;BME280;10516;51.518;9.864;2023-05-10T01:19:28;97933.44;;;14.96;61.28
20710;BME280;10516;51.518;9.864;2023-05-10T01:32:14;97938.91;;;14.91;61.34
20710;BME280;10516;51.518;9.864;2023-05-10T01:34:43;97936.22;;;14.91;61.95
20710;BME280;10516;51.518;9.864;2023-05-10T01:37:11;97929.84;;;14.87;61.80
20710;BME280;10516;51.518;9.864;2023-05-10T01:39:41;97928.34;;;14.81;62.41
20710;BME280;10516;51.518;9.864;2023-05-10T01:42:10;97933.81;;;14.90;61.94
20710;BME280;10516;51.518;9.864;2023-05-10T01:44:40;97929.34;;;14.85;61.95
20710;BME280;10516;51.518;9.864;2023-05-10T01:47:11;97929.66;;;14.84;62.23
20710;BME280;10516;51.518;9.864;2023-05-10T01:49:41;97927.06;;;14.79;62.40
20710;BME280;10516;51.518;9.864;2023-05-10T01:52:09;97929.75;;;14.79;63.21
20710;BME280;10516;51.518;9.864;2023-05-10T01:54:35;97920.91;;;14.78;63.11
20710;BME280;10516;51.518;9.864;2023-05-10T01:57:03;97915.31;;;14.75;62.90
20710;BME280;10516;51.518;9.864;2023-05-10T01:59:31;97918.31;;;14.73;63.12
20710;BME280;10516;51.518;9.864;2023-05-10T02:02:01;97926.16;;;14.83;63.10
20710;BME280;10516;51.518;9.864;2023-05-10T02:04:27;97924.25;;;14.70;63.67
20710;BME280;10516;51.518;9.864;2023-05-10T02:06:53;97936.38;;;14.68;63.74
20710;BME280;10516;51.518;9.864;2023-05-10T02:09:19;97931.81;;;14.68;63.51
20710;BME280;10516;51.518;9.864;2023-05-10T02:11:45;97934.44;;;14.73;63.80
20710;BME280;10516;51.518;9.864;2023-05-10T02:14:12;97930.75;;;14.69;63.52
20710;BME280;10516;51.518;9.864;2023-05-10T02:16:39;97929.56;;;14.75;63.67
20710;BME280;10516;51.518;9.864;2023-05-10T02:19:05;97929.25;;;14.77;63.57
20710;BME280;10516;51.518;9.864;2023-05-10T02:21:32;97942.78;;;14.72;63.89
20710;BME280;10516;51.518;9.864;2023-05-10T02:23:58;97941.69;;;14.73;63.75
20710;BME280;10516;51.518;9.864;2023-05-10T02:26:24;97937.81;;;14.65;64.30
20710;BME280;10516;51.518;9.864;2023-05-10T02:28:51;97938.59;;;14.66;64.86
20710;BME280;10516;51.518;9.864;2023-05-10T02:31:17;97938.97;;;14.59;65.16
20710;BME280;10516;51.518;9.864;2023-05-10T02:33:43;97935.00;;;14.57;65.63
20710;BME280;10516;51.518;9.864;2023-05-10T02:36:09;97927.84;;;14.52;65.98
20710;BME280;10516;51.518;9.864;2023-05-10T02:38:35;97927.84;;;14.52;66.48
20710;BME280;10516;51.518;9.864;2023-05-10T02:41:01;97919.97;;;14.56;66.98
20710;BME280;10516;51.518;9.864;2023-05-10T02:43:26;97934.78;;;14.53;67.23
20710;BME280;10516;51.518;9.864;2023-05-10T02:45:53;97941.34;;;14.47;67.68
20710;BME280;10516;51.518;9.864;2023-05-10T02:48:18;97938.34;;;14.49;68.31
20710;BME280;10516;51.518;9.864;2023-05-10T02:50:44;97935.47;;;14.45;68.92
20710;BME280;10516;51.518;9.864;2023-05-10T02:53:10;97944.72;;;14.39;68.95
20710;BME280;10516;51.518;9.864;2023-05-10T02:55:37;97942.91;;;14.35;69.59
20710;BME280;10516;51.518;9.864;2023-05-10T02:58:03;97940.44;;;14.38;69.41
20710;BME280;10516;51.518;9.864;2023-05-10T03:00:28;97941.63;;;14.32;70.00
20710;BME280;10516;51.518;9.864;2023-05-10T03:02:54;97942.34;;;14.19;70.59
20710;BME280;10516;51.518;9.864;2023-05-10T03:05:19;97945.69;;;14.30;70.36
20710;BME280;10516;51.518;9.864;2023-05-10T03:07:45;97940.84;;;14.26;70.34
20710;BME280;10516;51.518;9.864;2023-05-10T03:10:10;97943.03;;;14.24;70.94
20710;BME280;10516;51.518;9.864;2023-05-10T03:17:55;97948.41;;;14.24;70.85
20710;BME280;10516;51.518;9.864;2023-05-10T03:20:22;97946.03;;;14.23;71.27
20710;BME280;10516;51.518;9.864;2023-05-10T03:22:51;97943.72;;;14.16;71.49
20710;BME280;10516;51.518;9.864;2023-05-10T03:25:16;97950.97;;;14.16;71.84
20710;BME280;10516;51.518;9.864;2023-05-10T03:27:43;97950.97;;;14.16;72.10
20710;BME280;10516;51.518;9.864;2023-05-10T03:30:10;97945.22;;;14.22;72.56
20710;BME280;10516;51.518;9.864;2023-05-10T03:32:35;97949.78;;;14.22;72.58
20710;BME280;10516;51.518;9.864;2023-05-10T03:35:05;97943.78;;;14.11;72.80
20710;BME280;10516;51.518;9.864;2023-05-10T03:37:30;97949.88;;;14.17;73.37
20710;BME280;10516;51.518;9.864;2023-05-10T03:39:56;97950.16;;;14.15;73.63
20710;BME280;10516;51.518;9.864;2023-05-10T03:42:21;97946.69;;;14.15;73.47
20710;BME280;10516;51.518;9.864;2023-05-10T03:44:46;97957.44;;;14.15;74.07
20710;BME280;10516;51.518;9.864;2023-05-10T03:47:13;97952.72;;;14.07;74.65
20710;BME280;10516;51.518;9.864;2023-05-10T03:49:38;97949.03;;;14.03;74.75
20710;BME280;10516;51.518;9.864;2023-05-10T03:52:03;97939.78;;;14.09;75.15
20710;BME280;10516;51.518;9.864;2023-05-10T03:54:30;97945.97;;;14.09;75.28
20710;BME280;10516;51.518;9.864;2023-05-10T03:56:55;97954.75;;;14.15;75.23
20710;BME280;10516;51.518;9.864;2023-05-10T03:59:20;97943.78;;;14.11;75.54
20710;BME280;10516;51.518;9.864;2023-05-10T04:01:46;97960.19;;;14.10;75.66
20710;BME280;10516;51.518;9.864;2023-05-10T04:04:11;97953.16;;;14.14;75.35
20710;BME280;10516;51.518;9.864;2023-05-10T04:06:37;97948.28;;;14.16;76.13
20710;BME280;10516;51.518;9.864;2023-05-10T04:09:03;97951.97;;;14.20;76.28
20710;BME280;10516;51.518;9.864;2023-05-10T04:11:29;97951.75;;;13.84;76.79
20710;BME280;10516;51.518;9.864;2023-05-10T04:13:54;97954.63;;;13.88;78.05
20710;BME280;10516;51.518;9.864;2023-05-10T04:16:19;97945.66;;;14.11;77.08
20710;BME280;10516;51.518;9.864;2023-05-10T04:18:45;97954.38;;;14.21;76.58
20710;BME280;10516;51.518;9.864;2023-05-10T04:21:13;97953.66;;;14.16;77.17
20710;BME280;10516;51.518;9.864;2023-05-10T04:23:38;97962.81;;;14.15;77.38
20710;BME280;10516;51.518;9.864;2023-05-10T04:26:03;97965.75;;;14.13;77.95
20710;BME280;10516;51.518;9.864;2023-05-10T04:28:29;97962.69;;;14.06;78.08
20710;BME280;10516;51.518;9.864;2023-05-10T04:31:00;97973.19;;;14.03;78.80
20710;BME280;10516;51.518;9.864;2023-05-10T04:33:25;97977.34;;;13.95;79.27
20710;BME280;10516;51.518;9.864;2023-05-10T04:35:50;97974.69;;;13.53;81.33
20710;BME280;10516;51.518;9.864;2023-05-10T04:38:17;97963.84;;;13.82;80.22
20710;BME280;10516;51.518;9.864;2023-05-10T04:40:42;97976.66;;;13.66;81.21
20710;BME280;10516;51.518;9.864;2023-05-10T04:43:07;97972.69;;;13.64;81.86
20710;BME280;10516;51.518;9.864;2023-05-10T04:45:32;97971.38;;;13.61;82.02
20710;BME280;10516;51.518;9.864;2023-05-10T04:47:58;97979.63;;;13.83;81.37
20710;BME280;10516;51.518;9.864;2023-05-10T04:50:23;97979.16;;;14.00;80.60
20710;BME280;10516;51.518;9.864;2023-05-10T04:52:48;97986.16;;;13.96;81.16
20710;BME280;10516;51.518;9.864;2023-05-10T04:55:13;97983.16;;;13.41;83.14
20710;BME280;10516;51.518;9.864;2023-05-10T04:57:39;97987.03;;;13.54;83.76
20710;BME280;10516;51.518;9.864;2023-05-10T05:00:04;97985.72;;;13.70;82.72
20710;BME280;10516;51.518;9.864;2023-05-10T05:02:29;97996.69;;;13.74;82.27
20710;BME280;10516;51.518;9.864;2023-05-10T05:04:55;97996.50;;;13.46;84.54
20710;BME280;10516;51.518;9.864;2023-05-10T05:07:22;98001.66;;;13.43;85.11
20710;BME280;10516;51.518;9.864;2023-05-10T05:09:47;98001.38;;;14.00;81.92
20710;BME280;10516;51.518;9.864;2023-05-10T05:12:13;98010.69;;;14.08;81.52
20710;BME280;10516;51.518;9.864;2023-05-10T05:14:39;98018.88;;;14.16;81.11
20710;BME280;10516;51.518;9.864;2023-05-10T05:17:04;98011.41;;;13.95;82.49
20710;BME280;10516;51.518;9.864;2023-05-10T05:19:30;98016.72;;;14.00;82.08
20710;BME280;10516;51.518;9.864;2023-05-10T05:21:55;98012.25;;;14.09;81.94
20710;BME280;10516;51.518;9.864;2023-05-10T05:24:21;98010.50;;;14.18;81.40
20710;BME280;10516;51.518;9.864;2023-05-10T05:26:46;98022.91;;;14.14;81.83
20710;BME280;10516;51.518;9.864;2023-05-10T05:29:12;98021.53;;;14.16;81.74
20710;BME280;10516;51.518;9.864;2023-05-10T05:31:37;98023.72;;;13.77;83.81
20710;BME280;10516;51.518;9.864;2023-05-10T05:34:02;98025.97;;;14.07;82.22
20710;BME280;10516;51.518;9.864;2023-05-10T05:36:27;98030.66;;;14.15;81.69
20710;BME280;10516;51.518;9.864;2023-05-10T05:38:53;98034.94;;;13.98;83.18
20710;BME280;10516;51.518;9.864;2023-05-10T05:41:18;98036.63;;;14.12;82.43
20710;BME280;10516;51.518;9.864;2023-05-10T05:43:43;98039.81;;;14.14;82.72
20710;BME280;10516;51.518;9.864;2023-05-10T05:46:08;98043.22;;;14.20;82.04
20710;BME280;10516;51.518;9.864;2023-05-10T05:48:34;98044.91;;;14.16;82.21
20710;BME280;10516;51.518;9.864;2023-05-10T05:50:59;98054.47;;;14.22;82.49
20710;BME280;10516;51.518;9.864;2023-05-10T05:53:24;98054.09;;;14.28;82.14
20710;BME280;10516;51.518;9.864;2023-05-10T05:55:56;98056.84;;;14.05;83.63
20710;BME280;10516;51.518;9.864;2023-05-10T05:58:23;98054.47;;;14.22;82.35
20710;BME280;10516;51.518;9.864;2023-05-10T06:00:48;98055.56;;;14.21;82.54
20710;BME280;10516;51.518;9.864;2023-05-10T06:03:13;98064.34;;;14.08;83.06
20710;BME280;10516;51.518;9.864;2023-05-10T06:05:39;98068.09;;;14.07;83.88
20710;BME280;10516;51.518;9.864;2023-05-10T06:08:04;98072.00;;;13.96;84.56
20710;BME280;10516;51.518;9.864;2023-05-10T06:10:30;98067.28;;;13.88;85.07
20710;BME280;10516;51.518;9.864;2023-05-10T06:12:55;98074.47;;;14.11;84.03
20710;BME280;10516;51.518;9.864;2023-05-10T06:15:21;98078.06;;;14.25;83.26
20710;BME280;10516;51.518;9.864;2023-05-10T06:17:46;98078.53;;;14.32;82.91
20710;BME280;10516;51.518;9.864;2023-05-10T06:20:14;98081.84;;;14.24;83.05
20710;BME280;10516;51.518;9.864;2023-05-10T06:22:39;98084.47;;;14.29;83.08
20710;BME280;10516;51.518;9.864;2023-05-10T06:25:05;98086.06;;;14.30;82.47
20710;BME280;10516;51.518;9.864;2023-05-10T06:27:30;98088.66;;;14.35;82.84
20710;BME280;10516;51.518;9.864;2023-05-10T06:29:55;98092.94;;;14.17;84.95
20710;BME280;10516;51.518;9.864;2023-05-10T06:32:20;98085.09;;;14.40;82.13
20710;BME280;10516;51.518;9.864;2023-05-10T06:34:46;98094.16;;;14.25;83.58
20710;BME280;10516;51.518;9.864;2023-05-10T06:37:11;98088.66;;;14.35;82.47
20710;BME280;10516;51.518;9.864;2023-05-10T06:39:36;98103.03;;;14.44;82.27
20710;BME280;10516;51.518;9.864;2023-05-10T06:42:02;98099.84;;;14.42;82.80
20710;BME280;10516;51.518;9.864;2023-05-10T06:44:27;98104.19;;;14.38;82.72
20710;BME280;10516;51.518;9.864;2023-05-10T06:46:53;98102.19;;;14.30;83.33
20710;BME280;10516;51.518;9.864;2023-05-10T06:49:20;98109.81;;;14.18;84.03
20710;BME280;10516;51.518;9.864;2023-05-10T06:51:45;98118.28;;;14.30;83.19
20710;BME280;10516;51.518;9.864;2023-05-10T06:54:10;98117.22;;;14.07;84.62
20710;BME280;10516;51.518;9.864;2023-05-10T06:56:36;98115.03;;;14.09;84.73
20710;BME280;10516;51.518;9.864;2023-05-10T06:59:01;98121.16;;;14.15;84.09
20710;BME280;10516;51.518;9.864;2023-05-10T07:01:26;98119.19;;;14.20;83.71
20710;BME280;10516;51.518;9.864;2023-05-10T07:03:51;98117.50;;;14.24;83.66
20710;BME280;10516;51.518;9.864;2023-05-10T07:06:17;98127.16;;;14.25;83.32
20710;BME280;10516;51.518;9.864;2023-05-10T07:08:42;98124.97;;;14.09;83.91
20710;BME280;10516;51.518;9.864;2023-05-10T07:11:07;98121.47;;;13.90;85.38
20710;BME280;10516;51.518;9.864;2023-05-10T07:13:33;98120.50;;;13.81;85.99
20710;BME280;10516;51.518;9.864;2023-05-10T07:15:59;98120.75;;;14.03;84.51
20710;BME280;10516;51.518;9.864;2023-05-10T07:18:25;98128.25;;;14.06;84.39
20710;BME280;10516;51.518;9.864;2023-05-10T07:20:50;98126.72;;;14.00;84.69
20710;BME280;10516;51.518;9.864;2023-05-10T07:23:16;98132.69;;;13.92;85.24
20710;BME280;10516;51.518;9.864;2023-05-10T07:25:44;98123.28;;;13.94;84.86
20710;BME280;10516;51.518;9.864;2023-05-10T07:28:09;98132.09;;;14.00;85.15
20710;BME280;10516;51.518;9.864;2023-05-10T07:30:35;98130.31;;;13.90;85.55
20710;BME280;10516;51.518;9.864;2023-05-10T07:33:01;98137.25;;;13.91;84.65
20710;BME280;10516;51.518;9.864;2023-05-10T07:35:26;98134.72;;;13.81;85.51
20710;BME280;10516;51.518;9.864;2023-05-10T07:37:51;98136.69;;;13.94;84.91
20710;BME280;10516;51.518;9.864;2023-05-10T07:40:17;98141.34;;;14.07;84.63
20710;BME280;10516;51.518;9.864;2023-05-10T07:42:42;98132.03;;;14.23;83.64
20710;BME280;10516;51.518;9.864;2023-05-10T07:45:07;98136.03;;;14.26;83.32
20710;BME280;10516;51.518;9.864;2023-05-10T07:47:33;98143.03;;;14.22;83.67
20710;BME280;10516;51.518;9.864;2023-05-10T07:49:58;98145.16;;;14.25;84.39
20710;BME280;10516;51.518;9.864;2023-05-10T07:52:24;98155.38;;;14.23;83.86
20710;BME280;10516;51.518;9.864;2023-05-10T07:54:49;98157.00;;;14.24;83.52
20710;BME280;10516;51.518;9.864;2023-05-10T07:57:15;98153.72;;;14.27;83.85
20710;BME280;10516;51.518;9.864;2023-05-10T07:59:42;98161.84;;;14.46;82.11
20710;BME280;10516;51.518;9.864;2023-05-10T08:02:07;98159.38;;;14.25;83.41
20710;BME280;10516;51.518;9.864;2023-05-10T08:04:33;98171.75;;;14.45;82.03
20710;BME280;10516;51.518;9.864;2023-05-10T08:06:58;98168.28;;;14.45;82.73
20710;BME280;10516;51.518;9.864;2023-05-10T08:09:23;98173.28;;;14.51;81.92
20710;BME280;10516;51.518;9.864;2023-05-10T08:11:49;98169.38;;;14.44;82.84
20710;BME280;10516;51.518;9.864;2023-05-10T08:14:14;98182.50;;;14.64;81.46
20710;BME280;10516;51.518;9.864;2023-05-10T08:16:39;98182.28;;;14.60;81.81
20710;BME280;10516;51.518;9.864;2023-05-10T08:19:05;98194.78;;;14.51;82.00
20710;BME280;10516;51.518;9.864;2023-05-10T08:21:30;98193.31;;;14.40;82.79
20710;BME280;10516;51.518;9.864;2023-05-10T08:23:56;98194.19;;;14.54;83.20
20710;BME280;10516;51.518;9.864;2023-05-10T08:26:21;98197.47;;;14.70;80.09
20710;BME280;10516;51.518;9.864;2023-05-10T08:28:46;98204.63;;;14.74;80.63
20710;BME280;10516;51.518;9.864;2023-05-10T08:31:15;98210.00;;;14.74;81.54
20710;BME280;10516;51.518;9.864;2023-05-10T08:33:40;98204.00;;;14.82;80.65
20710;BME280;10516;51.518;9.864;2023-05-10T08:36:06;98210.16;;;14.64;81.39
20710;BME280;10516;51.518;9.864;2023-05-10T08:38:31;98216.50;;;14.73;81.00
20710;BME280;10516;51.518;9.864;2023-05-10T08:40:56;98217.34;;;14.87;80.24
20710;BME280;10516;51.518;9.864;2023-05-10T08:43:22;98219.31;;;14.82;79.79
20710;BME280;10516;51.518;9.864;2023-05-10T08:45:49;98217.19;;;14.79;80.65
20710;BME280;10516;51.518;9.864;2023-05-10T08:48:16;98228.38;;;14.86;79.48
20710;BME280;10516;51.518;9.864;2023-05-10T08:50:42;98220.97;;;14.96;79.59
20710;BME280;10516;51.518;9.864;2023-05-10T08:53:12;98222.78;;;15.01;78.90
20710;BME280;10516;51.518;9.864;2023-05-10T08:55:38;98230.41;;;15.13;78.67
20710;BME280;10516;51.518;9.864;2023-05-10T08:58:06;98227.03;;;15.21;78.40
20710;BME280;10516;51.518;9.864;2023-05-10T09:00:32;98236.03;;;15.30;77.42
20710;BME280;10516;51.518;9.864;2023-05-10T09:02:58;98233.06;;;15.31;78.61
20710;BME280;10516;51.518;9.864;2023-05-10T09:05:23;98235.38;;;15.38;77.82
20710;BME280;10516;51.518;9.864;2023-05-10T09:07:49;98243.50;;;15.51;77.60
20710;BME280;10516;51.518;9.864;2023-05-10T09:10:14;98248.09;;;15.51;78.40
20710;BME280;10516;51.518;9.864;2023-05-10T09:12:40;98254.41;;;15.60;77.57
20710;BME280;10516;51.518;9.864;2023-05-10T09:15:05;98248.34;;;15.68;77.97
20710;BME280;10516;51.518;9.864;2023-05-10T09:17:31;98247.31;;;15.50;78.61
20710;BME280;10516;51.518;9.864;2023-05-10T09:20:00;98253.34;;;15.74;77.11
20710;BME280;10516;51.518;9.864;2023-05-10T09:22:26;98249.44;;;15.67;77.23
20710;BME280;10516;51.518;9.864;2023-05-10T09:25:04;98252.44;;;15.65;77.10
20710;BME280;10516;51.518;9.864;2023-05-10T09:27:30;98262.88;;;15.67;76.69
20710;BME280;10516;51.518;9.864;2023-05-10T09:29:55;98260.59;;;15.60;77.02
20710;BME280;10516;51.518;9.864;2023-05-10T09:32:20;98260.00;;;15.63;76.76
20710;BME280;10516;51.518;9.864;2023-05-10T09:34:46;98262.19;;;15.61;76.80
20710;BME280;10516;51.518;9.864;2023-05-10T09:37:14;98262.09;;;15.66;76.67
20710;BME280;10516;51.518;9.864;2023-05-10T09:39:39;98265.66;;;15.62;76.87
20710;BME280;10516;51.518;9.864;2023-05-10T09:42:07;98267.69;;;15.70;76.18
20710;BME280;10516;51.518;9.864;2023-05-10T09:44:33;98275.25;;;15.68;75.57
20710;BME280;10516;51.518;9.864;2023-05-10T09:46:58;98281.16;;;15.70;75.15
20710;BME280;10516;51.518;9.864;2023-05-10T09:49:24;98278.97;;;15.72;76.40
20710;BME280;10516;51.518;9.864;2023-05-10T09:54:27;98285.38;;;15.90;75.25
20710;BME280;10516;51.518;9.864;2023-05-10T09:56:52;98278.31;;;15.94;74.76
20710;BME280;10516;51.518;9.864;2023-05-10T09:59:18;98286.00;;;16.00;75.46
20710;BME280;10516;51.518;9.864;2023-05-10T10:01:44;98281.91;;;16.16;74.74
20710;BME280;10516;51.518;9.864;2023-05-10T10:04:14;98283.53;;;16.31;73.87
20710;BME280;10516;51.518;9.864;2023-05-10T10:06:39;98277.53;;;16.34;73.49
20710;BME280;10516;51.518;9.864;2023-05-10T10:09:05;98272.75;;;16.44;73.53
20710;BME280;10516;51.518;9.864;2023-05-10T10:11:31;98279.66;;;16.51;73.30
20710;BME280;10516;51.518;9.864;2023-05-10T10:13:57;98271.97;;;16.58;73.27
20710;BME280;10516;51.518;9.864;2023-05-10T10:16:23;98274.72;;;16.80;72.67
20710;BME280;10516;51.518;9.864;2023-05-10T10:18:49;98286.69;;;16.87;71.87
20710;BME280;10516;51.518;9.864;2023-05-10T10:21:15;98288.19;;;16.80;72.12
20710;BME280;10516;51.518;9.864;2023-05-10T10:23:40;98285.78;;;16.92;71.55
20710;BME280;10516;51.518;9.864;2023-05-10T10:26:05;98292.25;;;17.04;70.82
20710;BME280;10516;51.518;9.864;2023-05-10T10:31:17;98292.50;;;16.81;70.90
20710;BME280;10516;51.518;9.864;2023-05-10T10:36:20;98285.84;;;17.14;69.85
20710;BME280;10516;51.518;9.864;2023-05-10T10:41:11;98291.34;;;17.09;70.17
20710;BME280;10516;51.518;9.864;2023-05-10T10:44:22;98293.00;;;16.83;71.11
20710;BME280;10516;51.518;9.864;2023-05-10T10:46:51;98289.56;;;16.91;70.93
20710;BME280;10516;51.518;9.864;2023-05-10T10:49:22;98297.88;;;16.94;70.76
20710;BME280;10516;51.518;9.864;2023-05-10T10:54:31;98297.22;;;16.62;72.12
20710;BME280;10516;51.518;9.864;2023-05-10T10:57:10;98310.75;;;16.43;71.87
20710;BME280;10516;51.518;9.864;2023-05-10T10:59:35;98317.53;;;16.40;72.53
20710;BME280;10516;51.518;9.864;2023-05-10T11:02:01;98311.44;;;16.35;72.83
20710;BME280;10516;51.518;9.864;2023-05-10T11:04:27;98317.16;;;16.33;73.45
20710;BME280;10516;51.518;9.864;2023-05-10T11:06:52;98316.53;;;16.36;74.32
20710;BME280;10516;51.518;9.864;2023-05-10T11:09:41;98310.88;;;16.52;73.03
20710;BME280;10516;51.518;9.864;2023-05-10T11:12:08;98306.59;;;16.64;72.41
20710;BME280;10516;51.518;9.864;2023-05-10T11:14:33;98312.28;;;16.76;72.31
20710;BME280;10516;51.518;9.864;2023-05-10T11:16:58;98311.84;;;16.96;72.01
20710;BME280;10516;51.518;9.864;2023-05-10T11:19:23;98311.81;;;17.10;71.28
20710;BME280;10516;51.518;9.864;2023-05-10T11:24:29;98311.34;;;17.30;71.10
20710;BME280;10516;51.518;9.864;2023-05-10T11:26:55;98307.91;;;17.52;70.14
20710;BME280;10516;51.518;9.864;2023-05-10T11:29:21;98309.66;;;17.34;71.16
20710;BME280;10516;51.518;9.864;2023-05-10T11:31:46;98301.56;;;17.56;69.51
20710;BME280;10516;51.518;9.864;2023-05-10T11:34:33;98306.50;;;17.76;69.43
20710;BME280;10516;51.518;9.864;2023-05-10T11:36:59;98309.13;;;17.68;69.28
20710;BME280;10516;51.518;9.864;2023-05-10T11:39:28;98304.75;;;17.80;67.77
20710;BME280;10516;51.518;9.864;2023-05-10T11:41:54;98304.13;;;18.06;68.48
20710;BME280;10516;51.518;9.864;2023-05-10T11:44:19;98300.22;;;18.20;67.29
20710;BME280;10516;51.518;9.864;2023-05-10T11:46:45;98293.75;;;18.30;67.11
20710;BME280;10516;51.518;9.864;2023-05-10T11:49:10;98297.03;;;18.49;66.53
20710;BME280;10516;51.518;9.864;2023-05-10T11:51:36;98292.94;;;18.60;66.30
20710;BME280;10516;51.518;9.864;2023-05-10T11:54:05;98306.31;;;18.65;64.99
20710;BME280;10516;51.518;9.864;2023-05-10T11:56:32;98296.19;;;18.88;64.61
20710;BME280;10516;51.518;9.864;2023-05-10T11:58:57;98304.16;;;19.01;64.35
20710;BME280;10516;51.518;9.864;2023-05-10T12:01:23;98298.63;;;19.15;64.43
20710;BME280;10516;51.518;9.864;2023-05-10T12:03:49;98305.31;;;19.09;64.27
20710;BME280;10516;51.518;9.864;2023-05-10T12:09:06;98309.78;;;18.57;64.62
20710;BME280;10516;51.518;9.864;2023-05-10T12:11:32;98299.31;;;18.33;65.85
20710;BME280;10516;51.518;9.864;2023-05-10T12:13:57;98306.53;;;18.94;65.05
20710;BME280;10516;51.518;9.864;2023-05-10T12:16:23;98309.72;;;19.05;65.33
20710;BME280;10516;51.518;9.864;2023-05-10T12:18:52;98311.59;;;18.87;65.55
20710;BME280;10516;51.518;9.864;2023-05-10T12:21:18;98312.41;;;18.96;65.29
20710;BME280;10516;51.518;9.864;2023-05-10T12:23:45;98305.41;;;18.78;66.16
20710;BME280;10516;51.518;9.864;2023-05-10T12:26:10;98315.34;;;18.52;65.20
20710;BME280;10516;51.518;9.864;2023-05-10T12:28:36;98314.91;;;18.67;64.80
20710;BME280;10516;51.518;9.864;2023-05-10T12:31:02;98315.56;;;17.80;66.26
20710;BME280;10516;51.518;9.864;2023-05-10T12:33:27;98321.44;;;18.35;65.54
20710;BME280;10516;51.518;9.864;2023-05-10T12:36:00;98321.31;;;18.10;64.91
20710;BME280;10516;51.518;9.864;2023-05-10T12:38:32;98325.47;;;18.16;64.06
20710;BME280;10516;51.518;9.864;2023-05-10T12:40:59;98320.00;;;18.77;65.86
20710;BME280;10516;51.518;9.864;2023-05-10T12:43:24;98323.19;;;18.40;62.64
20710;BME280;10516;51.518;9.864;2023-05-10T12:45:49;98317.13;;;17.73;62.94
20710;BME280;10516;51.518;9.864;2023-05-10T12:48:15;98328.19;;;18.24;66.50
20710;BME280;10516;51.518;9.864;2023-05-10T12:50:40;98318.97;;;18.47;65.40
20710;BME280;10516;51.518;9.864;2023-05-10T12:53:05;98322.22;;;18.66;63.77
20710;BME280;10516;51.518;9.864;2023-05-10T12:55:31;98319.22;;;18.85;62.55
20710;BME280;10516;51.518;9.864;2023-05-10T12:57:56;98325.84;;;19.35;63.34
20710;BME280;10516;51.518;9.864;2023-05-10T13:00:22;98327.56;;;19.23;63.97
20710;BME280;10516;51.518;9.864;2023-05-10T13:02:47;98328.38;;;19.15;60.96
20710;BME280;10516;51.518;9.864;2023-05-10T13:05:12;98330.44;;;18.53;62.61
20710;BME280;10516;51.518;9.864;2023-05-10T13:07:38;98319.13;;;19.24;63.92
20710;BME280;10516;51.518;9.864;2023-05-10T13:10:03;98319.31;;;19.28;63.20
20710;BME280;10516;51.518;9.864;2023-05-10T13:12:28;98319.19;;;19.59;62.75
20710;BME280;10516;51.518;9.864;2023-05-10T13:14:54;98319.63;;;19.78;62.48
20710;BME280;10516;51.518;9.864;2023-05-10T13:17:19;98327.91;;;19.81;60.76
20710;BME280;10516;51.518;9.864;2023-05-10T13:19:44;98324.56;;;19.93;60.43
20710;BME280;10516;51.518;9.864;2023-05-10T13:22:10;98326.19;;;20.40;62.34
20710;BME280;10516;51.518;9.864;2023-05-10T13:24:35;98327.22;;;20.94;59.28
20710;BME280;10516;51.518;9.864;2023-05-10T13:27:00;98328.50;;;20.97;60.41
20710;BME280;10516;51.518;9.864;2023-05-10T13:29:26;98326.97;;;21.16;57.81